Time;durP1;ratioP1;P1;durP2;ratioP2;P2;SDS_P1;SDS_P2;PMS_P1;PMS_P2;Temp;Humidity;BMP_temperature;BMP_pressure;BME280_temperature;BME280_humidity;BME280_pressure;Samples;Min_cycle;Max_cycle;Signal;HPM_P1;HPM_P2
2023/04/24 00:00:06;;;;;;;12.07;6.15;;;;;;;10.19;93.24;100424.09;5011603;28;20025;-71
2023/04/24 00:02:32;;;;;;;11.57;5.90;;;;;;;10.27;92.50;100419.19;5011331;28;20040;-72
2023/04/24 00:05:02;;;;;;;9.98;6.25;;;;;;;10.27;93.13;100417.53;5010933;28;20399;-71
2023/04/24 00:07:29;;;;;;;9.75;6.78;;;;;;;10.20;94.79;100408.69;4997681;28;20045;-72
2023/04/24 00:09:54;;;;;;;8.98;6.22;;;;;;;10.17;94.86;100411.13;4994655;28;20161;-71
2023/04/24 00:12:20;;;;;;;9.75;6.55;;;;;;;10.07;94.61;100397.81;4994104;28;20042;-71
2023/04/24 00:14:46;;;;;;;11.55;6.95;;;;;;;10.10;95.41;100405.69;4995506;28;20026;-71
2023/04/24 00:17:11;;;;;;;14.80;7.95;;;;;;;10.13;96.09;100414.44;4993142;28;20026;-71
2023/04/24 00:19:37;;;;;;;9.48;6.65;;;;;;;10.13;95.98;100413.53;4993811;28;20022;-71
2023/04/24 00:22:03;;;;;;;13.65;6.90;;;;;;;10.10;96.03;100418.59;4994745;28;20451;-71
2023/04/24 00:24:28;;;;;;;17.42;7.30;;;;;;;10.11;95.70;100410.91;4992865;28;20050;-71
2023/04/24 00:26:54;;;;;;;11.77;7.50;;;;;;;9.83;95.60;100371.19;4990413;28;20031;-71
2023/04/24 00:29:19;;;;;;;10.15;6.80;;;;;;;10.03;95.71;100412.28;4989409;28;20077;-71
2023/04/24 00:31:45;;;;;;;13.60;7.47;;;;;;;9.97;96.17;100409.47;4993809;28;20026;-71
2023/04/24 00:34:11;;;;;;;8.38;6.65;;;;;;;9.97;96.38;100412.06;4993459;28;20031;-71
2023/04/24 00:36:37;;;;;;;11.20;7.30;;;;;;;9.90;96.31;100408.38;5008055;28;20046;-70
2023/04/24 00:39:03;;;;;;;11.43;7.05;;;;;;;9.80;96.92;100407.13;4993970;28;20461;-70
2023/04/24 00:41:29;;;;;;;11.35;7.10;;;;;;;9.77;97.51;100400.97;4992457;28;20088;-70
2023/04/24 00:43:55;;;;;;;11.90;8.32;;;;;;;9.73;97.67;100397.41;4993444;28;20602;-71
2023/04/24 00:46:21;;;;;;;15.38;7.65;;;;;;;9.51;99.12;100383.69;4992661;28;20117;-71
2023/04/24 00:48:46;;;;;;;12.55;7.50;;;;;;;9.55;99.63;100395.84;4993315;28;20742;-70
2023/04/24 00:51:12;;;;;;;13.98;7.50;;;;;;;9.64;99.16;100394.47;4993456;28;20038;-71
2023/04/24 00:53:38;;;;;;;10.05;7.57;;;;;;;9.50;99.45;100399.94;4993471;28;20101;-70
2023/04/24 00:56:05;;;;;;;10.40;7.38;;;;;;;9.44;99.75;100394.56;4993759;28;20030;-70
2023/04/24 00:58:31;;;;;;;15.27;8.13;;;;;;;9.51;99.99;100396.56;4993557;28;20031;-70
2023/04/24 01:00:57;;;;;;;12.52;8.18;;;;;;;9.36;100.00;100403.69;4993067;28;20084;-70
2023/04/24 01:03:31;;;;;;;11.43;8.02;;;;;;;9.31;100.00;100395.75;4993156;28;20093;-71
2023/04/24 01:05:57;;;;;;;10.90;7.30;;;;;;;8.88;100.00;100345.06;4993262;28;20034;-71
2023/04/24 01:08:26;;;;;;;12.68;8.25;;;;;;;9.28;100.00;100394.75;4993019;28;20030;-71
2023/04/24 01:10:52;;;;;;;12.57;7.53;;;;;;;9.30;100.00;100391.41;4993376;28;20031;-70
2023/04/24 01:13:19;;;;;;;15.57;7.95;;;;;;;9.33;100.00;100388.09;4993472;28;20031;-70
2023/04/24 01:15:45;;;;;;;11.85;8.23;;;;;;;9.36;100.00;100396.81;4993342;28;20101;-70
2023/04/24 01:18:11;;;;;;;11.40;7.80;;;;;;;9.19;100.00;100365.22;4993068;28;20110;-70
2023/04/24 01:20:40;;;;;;;12.00;8.05;;;;;;;9.29;100.00;100383.63;4992987;28;20460;-71
2023/04/24 01:23:06;;;;;;;11.20;7.53;;;;;;;8.89;100.00;100314.22;4993292;28;20047;-70
2023/04/24 01:25:32;;;;;;;13.85;8.27;;;;;;;9.28;100.00;100369.88;4993258;28;20047;-70
2023/04/24 01:27:58;;;;;;;13.00;8.55;;;;;;;9.03;100.00;100337.97;4992879;28;20444;-70
2023/04/24 01:30:24;;;;;;;13.25;7.63;;;;;;;9.28;100.00;100374.16;5006711;28;20050;-71
2023/04/24 01:32:51;;;;;;;13.93;8.05;;;;;;;9.18;100.00;100371.22;4992868;28;20042;-70
2023/04/24 01:35:16;;;;;;;10.73;7.97;;;;;;;9.22;100.00;100375.66;4992756;28;20037;-70
2023/04/24 01:37:42;;;;;;;12.73;8.05;;;;;;;9.22;100.00;100370.50;4990380;28;20035;-70
2023/04/24 01:40:08;;;;;;;11.45;7.50;;;;;;;9.28;100.00;100359.56;4992909;28;20088;-71
2023/04/24 01:42:34;;;;;;;11.40;7.57;;;;;;;9.27;100.00;100368.13;4992747;28;20033;-71
2023/04/24 01:45:01;;;;;;;11.10;7.90;;;;;;;9.33;100.00;100352.03;4992752;28;20045;-71
2023/04/24 01:47:27;;;;;;;11.40;7.70;;;;;;;9.28;100.00;100366.41;4992864;28;20027;-69
2023/04/24 01:49:53;;;;;;;10.13;7.78;;;;;;;9.15;100.00;100354.75;4992486;28;20026;-70
2023/04/24 01:52:18;;;;;;;13.98;7.97;;;;;;;9.16;100.00;100364.22;4991964;28;20066;-70
2023/04/24 01:54:44;;;;;;;11.63;7.38;;;;;;;9.07;100.00;100354.41;4992581;28;20037;-70
2023/04/24 01:57:10;;;;;;;16.25;7.88;;;;;;;8.99;100.00;100369.56;4992436;28;20066;-70
2023/04/24 01:59:36;;;;;;;14.88;8.02;;;;;;;8.56;100.00;100317.16;4992137;28;20027;-70
2023/04/24 02:02:02;;;;;;;12.73;8.13;;;;;;;8.58;100.00;100367.00;4992431;28;20030;-70
2023/04/24 02:04:28;;;;;;;11.30;7.32;;;;;;;8.53;100.00;100381.34;4992241;28;20113;-70
2023/04/24 02:06:54;;;;;;;11.88;8.10;;;;;;;8.33;100.00;100376.97;4992274;28;20499;-70
2023/04/24 02:09:19;;;;;;;11.18;7.90;;;;;;;8.17;100.00;100376.28;4991974;28;20565;-70
2023/04/24 02:11:45;;;;;;;10.60;7.63;;;;;;;8.16;100.00;100366.84;4992316;28;20026;-70
2023/04/24 02:14:10;;;;;;;15.02;8.57;;;;;;;8.09;100.00;100357.94;4992155;28;20031;-71
2023/04/24 02:16:36;;;;;;;10.48;7.55;;;;;;;8.12;100.00;100371.75;4992458;28;20026;-69
2023/04/24 02:19:02;;;;;;;13.88;7.78;;;;;;;8.02;100.00;100366.19;4992211;28;20035;-70
2023/04/24 02:21:27;;;;;;;13.18;8.45;;;;;;;8.14;100.00;100363.31;4991879;28;20477;-70
2023/04/24 02:23:53;;;;;;;14.93;7.95;;;;;;;8.05;100.00;100344.88;4991534;28;20050;-70
2023/04/24 02:26:19;;;;;;;10.73;7.65;;;;;;;8.16;100.00;100350.50;4991722;28;20420;-70
2023/04/24 02:28:44;;;;;;;11.85;8.00;;;;;;;8.40;100.00;100354.16;4991360;28;20038;-70
2023/04/24 02:31:10;;;;;;;11.13;7.53;;;;;;;8.55;100.00;100355.69;4991894;28;20034;-71
2023/04/24 02:33:35;;;;;;;13.45;8.18;;;;;;;8.64;100.00;100355.22;4991567;28;20026;-71
2023/04/24 02:36:04;;;;;;;12.90;7.72;;;;;;;8.47;100.00;100347.63;4991993;28;20038;-71
2023/04/24 02:38:29;;;;;;;11.10;7.60;;;;;;;8.16;100.00;100359.13;4991767;28;20121;-68
2023/04/24 02:40:55;;;;;;;10.05;7.60;;;;;;;7.85;100.00;100360.28;4990182;28;20137;-73
2023/04/24 02:43:21;;;;;;;11.93;7.13;;;;;;;8.03;100.00;100352.53;4976700;28;20034;-72
2023/04/24 02:45:46;;;;;;;14.50;7.93;;;;;;;8.10;100.00;100339.13;4977096;28;20032;-72
2023/04/24 02:48:12;;;;;;;11.43;8.23;;;;;;;8.18;100.00;100352.34;4991160;28;20034;-72
2023/04/24 02:50:37;;;;;;;15.98;8.13;;;;;;;8.24;100.00;100354.31;4990731;28;20041;-72
2023/04/24 02:53:03;;;;;;;9.73;7.13;;;;;;;8.37;100.00;100368.59;4991318;28;20032;-72
2023/04/24 02:55:28;;;;;;;11.00;7.53;;;;;;;8.32;100.00;100364.94;4991101;28;20018;-73
2023/04/24 02:57:54;;;;;;;17.33;9.43;;;;;;;8.41;100.00;100371.38;4990696;28;20092;-73
2023/04/24 03:00:20;;;;;;;13.95;8.27;;;;;;;8.33;100.00;100352.13;4990323;28;20084;-72
2023/04/24 03:02:45;;;;;;;11.55;7.80;;;;;;;8.45;100.00;100367.25;4990856;28;20026;-72
2023/04/24 03:05:11;;;;;;;9.02;7.18;;;;;;;8.50;100.00;100349.44;4990155;28;20033;-72
2023/04/24 03:07:37;;;;;;;13.10;7.70;;;;;;;8.77;100.00;100356.59;4990906;28;20121;-73
2023/04/24 03:10:05;;;;;;;14.15;6.93;;;;;;;8.93;100.00;100337.53;4990853;28;20109;-72
2023/04/24 03:12:31;;;;;;;11.50;7.32;;;;;;;9.12;99.95;100342.63;4990601;28;20022;-74
2023/04/24 03:14:56;;;;;;;10.52;7.88;;;;;;;8.99;100.00;100330.94;4990724;28;20040;-74
2023/04/24 03:17:21;;;;;;;12.43;7.20;;;;;;;9.00;100.00;100344.69;4990688;28;20504;-72
2023/04/24 03:19:47;;;;;;;16.80;7.85;;;;;;;8.90;100.00;100354.59;4990296;28;20022;-74
2023/04/24 03:22:12;;;;;;;11.30;7.53;;;;;;;8.52;100.00;100352.97;4990544;28;20030;-73
2023/04/24 03:24:38;;;;;;;14.07;8.35;;;;;;;8.24;100.00;100354.31;4990174;28;20042;-74
2023/04/24 03:27:03;;;;;;;17.08;9.02;;;;;;;8.16;100.00;100369.41;4990226;28;20489;-74
2023/04/24 03:29:29;;;;;;;14.38;8.65;;;;;;;8.05;100.00;100366.34;4985591;28;20050;-74
2023/04/24 03:31:54;;;;;;;12.60;8.50;;;;;;;8.00;100.00;100370.41;4990500;28;20027;-73
2023/04/24 03:34:19;;;;;;;18.77;8.45;;;;;;;7.74;100.00;100362.34;4990650;28;20113;-73
2023/04/24 03:36:47;;;;;;;14.52;7.93;;;;;;;7.56;100.00;100357.25;4990537;28;20031;-73
2023/04/24 03:39:13;;;;;;;13.98;8.48;;;;;;;7.83;100.00;100379.03;4990738;28;20088;-72
2023/04/24 03:41:38;;;;;;;20.55;9.20;;;;;;;8.01;100.00;100381.53;4988623;28;20034;-73
2023/04/24 03:44:04;;;;;;;18.95;8.10;;;;;;;8.10;100.00;100364.84;4990234;28;20038;-73
2023/04/24 03:46:29;;;;;;;14.80;7.70;;;;;;;8.23;100.00;100373.97;4990055;28;20042;-73
2023/04/24 03:48:55;;;;;;;20.17;8.35;;;;;;;8.35;100.00;100365.06;4990241;28;20053;-73
2023/04/24 03:51:20;;;;;;;13.75;7.95;;;;;;;8.57;100.00;100380.69;4990137;28;20022;-74
2023/04/24 03:53:46;;;;;;;16.88;8.05;;;;;;;8.69;100.00;100388.03;4990188;28;20546;-74
2023/04/24 03:56:11;;;;;;;13.13;8.15;;;;;;;8.78;100.00;100391.81;4990147;28;20533;-73
2023/04/24 03:58:37;;;;;;;19.65;8.43;;;;;;;8.85;99.98;100399.88;4990460;28;20504;-73
2023/04/24 04:01:04;;;;;;;15.63;8.13;;;;;;;8.88;100.00;100394.88;4989202;28;20133;-74
2023/04/24 04:03:29;;;;;;;12.25;7.70;;;;;;;8.89;99.66;100381.16;4988292;28;20062;-73
2023/04/24 04:05:54;;;;;;;12.45;7.70;;;;;;;8.91;99.67;100376.09;4989701;28;20061;-73
2023/04/24 04:08:20;;;;;;;16.48;7.97;;;;;;;8.72;100.00;100375.31;4988764;28;20397;-73
2023/04/24 04:10:45;;;;;;;15.07;8.13;;;;;;;8.64;100.00;100381.81;4989700;28;20469;-72
2023/04/24 04:13:11;;;;;;;14.82;8.27;;;;;;;8.76;100.00;100383.16;4990112;28;20042;-74
2023/04/24 04:15:36;;;;;;;15.95;8.15;;;;;;;8.70;100.00;100386.34;4991492;28;20031;-70
2023/04/24 04:18:02;;;;;;;16.15;8.07;;;;;;;8.83;100.00;100390.31;4993639;28;20412;-73
2023/04/24 04:20:27;;;;;;;16.27;8.07;;;;;;;8.88;100.00;100386.25;4992368;28;20041;-73
2023/04/24 04:22:53;;;;;;;12.93;7.25;;;;;;;9.06;99.95;100391.31;4991995;28;20053;-71
2023/04/24 04:25:19;;;;;;;13.50;7.72;;;;;;;9.09;99.04;100388.84;4993365;28;20043;-69
2023/04/24 04:27:47;;;;;;;10.95;7.32;;;;;;;8.98;99.05;100354.91;4993072;28;20404;-72
2023/04/24 04:30:13;;;;;;;20.08;11.27;;;;;;;9.05;99.29;100392.13;4993719;28;20054;-75
2023/04/24 04:32:38;;;;;;;14.07;9.13;;;;;;;8.86;100.00;100393.91;4993505;28;20062;-72
2023/04/24 04:35:04;;;;;;;10.32;7.88;;;;;;;8.55;100.00;100366.00;4993588;28;20034;-72
2023/04/24 04:37:31;;;;;;;11.25;7.03;;;;;;;8.65;100.00;100410.97;4989251;28;20030;-72
2023/04/24 04:39:57;;;;;;;16.17;8.13;;;;;;;8.49;100.00;100399.16;4992706;28;20465;-69
2023/04/24 04:42:24;;;;;;;16.80;7.90;;;;;;;7.59;100.00;100277.72;4993443;28;20035;-69
2023/04/24 04:44:50;;;;;;;10.40;6.80;;;;;;;8.24;100.00;100409.19;4993841;28;20030;-71
2023/04/24 04:47:17;;;;;;;11.13;7.47;;;;;;;8.08;100.00;100417.88;4992879;28;20026;-70
2023/04/24 04:49:43;;;;;;;14.98;8.23;;;;;;;8.09;100.00;100408.50;4993233;28;20489;-72
2023/04/24 04:52:09;;;;;;;18.25;9.13;;;;;;;8.26;100.00;100412.72;4993244;28;20081;-69
2023/04/24 04:54:34;;;;;;;16.80;8.68;;;;;;;8.30;100.00;100410.28;4993122;28;20026;-71
2023/04/24 04:57:00;;;;;;;17.92;8.40;;;;;;;8.46;100.00;100419.56;4993005;28;20053;-72
2023/04/24 04:59:27;;;;;;;13.77;8.75;;;;;;;8.35;100.00;100372.78;4993001;28;20031;-68
2023/04/24 05:01:52;;;;;;;13.98;9.18;;;;;;;8.68;100.00;100427.44;4992611;28;20030;-68
2023/04/24 05:04:18;;;;;;;15.05;9.20;;;;;;;8.65;100.00;100418.69;4993339;28;20104;-71
2023/04/24 05:06:44;;;;;;;19.70;10.60;;;;;;;8.85;100.00;100417.88;4992297;28;20109;-70
2023/04/24 05:09:09;;;;;;;22.63;12.77;;;;;;;8.96;100.00;100412.31;4992725;28;20109;-72
2023/04/24 05:11:35;;;;;;;20.83;12.57;;;;;;;9.11;100.00;100412.97;4992287;28;20026;-71
2023/04/24 05:14:00;;;;;;;19.98;11.82;;;;;;;9.11;100.00;100405.25;4993011;28;20080;-68
2023/04/24 05:16:26;;;;;;;24.27;13.07;;;;;;;9.08;100.00;100392.22;4992622;28;20133;-69
2023/04/24 05:18:51;;;;;;;21.08;13.52;;;;;;;9.13;100.00;100400.16;4992864;28;20031;-67
2023/04/24 05:21:17;;;;;;;17.08;12.32;;;;;;;8.90;100.00;100346.88;4991152;28;20484;-70
2023/04/24 05:23:42;;;;;;;20.23;12.07;;;;;;;9.23;100.00;100400.59;4992227;28;20412;-67
2023/04/24 05:26:08;;;;;;;21.83;13.18;;;;;;;9.22;100.00;100393.69;4992050;28;20101;-71
2023/04/24 05:28:36;;;;;;;15.00;10.95;;;;;;;9.17;100.00;100371.13;4991897;28;20024;-70
2023/04/24 05:31:02;;;;;;;17.00;10.70;;;;;;;9.55;100.00;100401.00;4990965;28;20022;-68
2023/04/24 05:33:27;;;;;;;18.25;9.88;;;;;;;9.47;100.00;100389.53;4992632;28;20393;-68
2023/04/24 05:35:53;;;;;;;13.25;8.98;;;;;;;9.31;100.00;100375.16;4992424;28;20035;-68
2023/04/24 05:38:19;;;;;;;14.23;9.00;;;;;;;9.48;100.00;100405.88;4992109;28;20184;-69
2023/04/24 05:40:46;;;;;;;16.30;9.50;;;;;;;9.34;100.00;100384.69;4992087;28;20084;-68
2023/04/24 05:43:12;;;;;;;15.43;8.82;;;;;;;9.74;100.00;100409.47;4992320;28;20157;-68
2023/04/24 05:45:38;;;;;;;14.63;8.00;;;;;;;9.82;100.00;100402.03;4992182;28;20117;-68
2023/04/24 05:48:04;;;;;;;12.63;8.32;;;;;;;9.94;100.00;100399.94;4992365;28;20037;-72
2023/04/24 05:50:29;;;;;;;16.08;7.75;;;;;;;10.00;100.00;100410.47;4991846;28;20097;-71
2023/04/24 05:52:57;;;;;;;17.85;9.20;;;;;;;10.27;100.00;100411.47;4991731;28;20042;-68
2023/04/24 05:55:25;;;;;;;14.82;8.70;;;;;;;10.50;100.00;100414.94;4991417;28;20038;-68
2023/04/24 05:57:50;;;;;;;16.60;10.75;;;;;;;10.66;99.56;100408.63;4991916;28;20026;-68
2023/04/24 06:00:17;;;;;;;15.32;7.93;;;;;;;10.58;99.44;100356.72;4991894;28;20374;-69
2023/04/24 06:02:43;;;;;;;12.45;7.70;;;;;;;11.08;97.57;100412.63;4991973;28;20546;-68
2023/04/24 06:05:09;;;;;;;15.68;8.68;;;;;;;11.23;98.09;100409.72;4990342;28;20121;-67
2023/04/24 06:07:34;;;;;;;10.65;7.22;;;;;;;11.37;95.65;100389.47;4991370;28;20058;-69
2023/04/24 06:10:00;;;;;;;13.35;7.53;;;;;;;11.58;95.00;100407.38;4991615;28;20066;-71
2023/04/24 06:12:26;;;;;;;14.98;7.88;;;;;;;11.43;95.57;100375.03;4986248;28;20070;-68
2023/04/24 06:14:51;;;;;;;16.00;7.60;;;;;;;11.55;95.15;100394.34;4999037;28;20034;-71
2023/04/24 06:17:17;;;;;;;10.73;7.35;;;;;;;11.67;96.10;100401.63;4980574;28;20096;-68
2023/04/24 06:19:43;;;;;;;12.27;7.45;;;;;;;11.48;96.02;100362.25;4981511;28;20033;-68
2023/04/24 06:22:08;;;;;;;11.13;7.80;;;;;;;11.55;95.65;100373.66;4991250;28;20046;-70
2023/04/24 06:24:34;;;;;;;14.23;8.05;;;;;;;11.64;97.13;100384.31;4991274;28;20398;-70
2023/04/24 06:27:01;;;;;;;13.88;7.53;;;;;;;11.63;97.21;100378.25;4991407;28;20108;-71
2023/04/24 06:29:26;;;;;;;11.52;7.97;;;;;;;11.68;97.81;100391.31;4991271;28;20037;-73
2023/04/24 06:31:52;;;;;;;16.42;8.80;;;;;;;11.92;97.97;100405.84;4991542;28;20026;-71
2023/04/24 06:34:17;;;;;;;12.43;7.70;;;;;;;11.98;95.48;100406.06;4991507;28;20034;-73
2023/04/24 06:36:43;;;;;;;12.75;8.85;;;;;;;12.08;96.33;100407.22;4990801;28;20076;-73
2023/04/24 06:39:09;;;;;;;14.15;8.65;;;;;;;12.18;96.54;100400.59;4990265;28;20460;-70
2023/04/24 06:41:34;;;;;;;11.63;7.63;;;;;;;12.34;96.20;100395.03;4991316;28;20437;-70
2023/04/24 06:44:00;;;;;;;10.85;7.75;;;;;;;12.43;95.51;100395.28;4990859;28;20455;-71
2023/04/24 06:46:27;;;;;;;12.13;7.85;;;;;;;12.49;96.39;100385.97;4991008;28;20034;-68
2023/04/24 06:48:55;;;;;;;14.43;8.95;;;;;;;11.94;95.71;100280.88;4988520;28;20408;-68
2023/04/24 06:51:24;;;;;;;9.93;7.30;;;;;;;12.69;95.88;100383.91;4990838;28;20034;-70
2023/04/24 06:53:49;;;;;;;14.45;7.43;;;;;;;12.82;95.53;100391.13;4990987;28;20032;-70
2023/04/24 06:56:15;;;;;;;10.35;6.53;;;;;;;12.94;95.48;100394.06;4990696;28;20030;-73
2023/04/24 06:58:41;;;;;;;12.45;7.43;;;;;;;13.07;96.22;100390.09;4991215;28;20031;-68
2023/04/24 07:01:07;;;;;;;13.07;5.90;;;;;;;13.31;94.42;100373.38;4991333;28;20065;-70
2023/04/24 07:03:32;;;;;;;8.30;5.50;;;;;;;13.46;94.57;100372.91;4990751;28;20060;-68
2023/04/24 07:05:59;;;;;;;10.82;6.30;;;;;;;13.69;94.11;100368.22;4990966;28;20026;-69
2023/04/24 07:08:25;;;;;;;9.80;5.13;;;;;;;13.72;90.65;100364.81;4991333;28;20062;-69
2023/04/24 07:10:51;;;;;;;12.30;5.95;;;;;;;13.79;89.62;100371.06;4991281;28;20460;-71
2023/04/24 07:13:17;;;;;;;10.35;5.15;;;;;;;13.90;88.78;100370.44;4991369;28;20026;-68
2023/04/24 07:15:42;;;;;;;10.75;4.90;;;;;;;13.80;87.33;100326.97;4991407;28;20109;-69
2023/04/24 07:18:08;;;;;;;7.65;4.90;;;;;;;13.97;88.10;100365.38;4991253;28;20113;-67
2023/04/24 07:20:34;;;;;;;8.88;4.82;;;;;;;14.04;87.63;100362.97;4990720;28;20477;-68
2023/04/24 07:22:59;;;;;;;12.73;4.95;;;;;;;14.14;85.83;100352.75;4988620;28;20581;-68
2023/04/24 07:25:25;;;;;;;10.32;5.25;;;;;;;14.21;87.10;100360.69;4988124;28;20169;-68
2023/04/24 07:27:50;;;;;;;10.15;5.15;;;;;;;13.97;84.88;100308.28;4988616;28;20047;-70
2023/04/24 07:30:16;;;;;;;8.65;5.20;;;;;;;14.29;85.46;100352.19;4988322;28;20046;-71
2023/04/24 07:32:41;;;;;;;11.30;5.72;;;;;;;14.42;84.25;100364.56;4988493;28;20030;-70
2023/04/24 07:35:09;;;;;;;8.32;4.70;;;;;;;14.53;83.29;100370.84;4988244;28;20031;-67
2023/04/24 07:37:35;;;;;;;6.85;5.15;;;;;;;14.51;84.52;100353.47;4988321;28;20038;-68
2023/04/24 07:40:00;;;;;;;8.80;4.70;;;;;;;14.64;83.44;100351.97;4988406;28;20116;-70
2023/04/24 07:42:26;;;;;;;9.75;5.10;;;;;;;14.71;83.63;100351.28;4988358;28;20117;-68
2023/04/24 07:44:51;;;;;;;10.35;5.57;;;;;;;14.35;83.48;100298.63;4988371;28;20046;-69
2023/04/24 07:47:17;;;;;;;6.13;4.53;;;;;;;14.79;85.69;100354.00;4988374;28;20030;-67
2023/04/24 07:49:42;;;;;;;9.80;5.22;;;;;;;14.97;82.45;100349.13;4971881;28;20038;-71
2023/04/24 07:52:08;;;;;;;7.93;4.88;;;;;;;15.20;81.53;100359.03;4992162;28;20026;-71
2023/04/24 07:54:34;;;;;;;8.48;4.80;;;;;;;15.20;80.05;100354.72;4992113;28;20041;-69
2023/04/24 07:57:00;;;;;;;7.35;4.18;;;;;;;15.28;80.21;100352.25;4992077;28;20446;-68
2023/04/24 07:59:26;;;;;;;10.70;4.38;;;;;;;15.36;78.71;100355.84;4991934;28;20472;-69
2023/04/24 08:01:51;;;;;;;12.43;4.65;;;;;;;15.39;79.82;100357.63;4992277;28;20068;-69
2023/04/24 08:04:17;;;;;;;8.13;4.63;;;;;;;15.34;78.28;100352.34;4994698;28;20041;-70
2023/04/24 08:06:43;;;;;;;11.60;4.82;;;;;;;15.52;79.04;100366.47;4994415;28;20117;-71
2023/04/24 08:09:09;;;;;;;10.57;5.30;;;;;;;15.53;78.43;100355.22;4993330;28;20165;-70
2023/04/24 08:11:34;;;;;;;8.18;5.40;;;;;;;15.63;77.14;100353.63;4981628;28;20037;-67
2023/04/24 08:14:00;;;;;;;10.43;4.93;;;;;;;15.74;75.89;100359.88;4975162;28;20437;-69
2023/04/24 08:16:26;;;;;;;11.27;5.57;;;;;;;15.78;77.40;100360.78;4974731;28;20031;-68
2023/04/24 08:18:52;;;;;;;10.75;5.35;;;;;;;15.62;76.90;100328.47;4975027;28;20037;-68
2023/04/24 08:21:18;;;;;;;7.60;4.97;;;;;;;15.89;75.85;100354.03;4974592;28;20787;-68
2023/04/24 08:23:45;;;;;;;10.50;4.68;;;;;;;15.76;75.92;100358.13;4974720;28;20058;-69
2023/04/24 08:26:11;;;;;;;9.02;4.93;;;;;;;15.91;76.89;100352.28;4973759;28;20027;-67
2023/04/24 08:28:37;;;;;;;9.80;4.25;;;;;;;15.97;76.24;100354.97;4974684;28;20034;-67
2023/04/24 08:31:02;;;;;;;9.57;4.95;;;;;;;16.15;75.95;100359.56;4974716;28;20388;-68
2023/04/24 08:33:33;;;;;;;5.90;3.92;;;;;;;16.15;73.86;100345.69;4974353;28;20031;-71
2023/04/24 08:36:02;;;;;;;11.35;4.80;;;;;;;16.18;74.75;100343.09;4974404;28;20038;-67
2023/04/24 08:38:28;;;;;;;6.75;3.67;;;;;;;15.95;73.82;100306.34;4974500;28;20035;-68
2023/04/24 08:40:54;;;;;;;9.05;4.70;;;;;;;16.25;74.82;100349.25;4974179;28;20034;-71
2023/04/24 08:43:22;;;;;;;9.88;4.50;;;;;;;16.32;73.16;100345.84;4974603;28;20400;-71
2023/04/24 08:45:47;;;;;;;9.18;5.70;;;;;;;16.37;73.57;100336.34;4974247;28;20086;-68
2023/04/24 08:48:13;;;;;;;7.70;4.75;;;;;;;16.43;73.16;100331.22;4974468;28;20471;-68
2023/04/24 08:50:42;;;;;;;7.65;4.28;;;;;;;16.46;74.32;100326.06;4974391;28;20035;-71
2023/04/24 08:53:09;;;;;;;8.10;4.90;;;;;;;16.61;73.23;100319.22;4974172;28;20061;-70
2023/04/24 08:55:35;;;;;;;8.52;4.68;;;;;;;16.51;72.24;100279.19;4973981;28;20089;-71
2023/04/24 08:58:02;;;;;;;9.23;3.95;;;;;;;16.87;71.91;100306.44;4974182;28;20034;-67
2023/04/24 09:00:28;;;;;;;9.48;4.60;;;;;;;16.94;70.51;100315.22;4973646;28;20509;-67
2023/04/24 09:02:55;;;;;;;5.15;4.20;;;;;;;17.01;72.19;100314.44;4973230;28;20042;-67
2023/04/24 09:05:23;;;;;;;6.70;4.50;;;;;;;17.02;73.38;100315.28;4973843;28;20033;-66
2023/04/24 09:07:59;;;;;;;8.23;4.20;;;;;;;16.81;70.92;100269.91;5004211;28;20126;-68
2023/04/24 09:10:26;;;;;;;8.27;4.50;;;;;;;17.20;69.78;100307.59;4972681;28;20401;-67
2023/04/24 09:12:51;;;;;;;8.82;4.30;;;;;;;17.28;67.84;100308.53;4973980;28;20034;-67
2023/04/24 09:15:20;;;;;;;6.45;3.75;;;;;;;17.41;69.34;100306.88;4973927;28;20123;-73
2023/04/24 09:17:46;;;;;;;7.55;4.00;;;;;;;17.40;65.70;100260.75;4973838;28;20031;-69
2023/04/24 09:20:11;;;;;;;5.95;3.97;;;;;;;17.62;67.10;100302.66;4973703;28;20053;-72
2023/04/24 09:22:37;;;;;;;9.23;4.63;;;;;;;17.74;67.06;100299.22;4973826;28;20038;-70
2023/04/24 09:25:08;;;;;;;7.93;4.05;;;;;;;17.71;67.11;100297.47;4973720;28;20446;-73
2023/04/24 09:27:34;;;;;;;10.18;4.55;;;;;;;17.71;66.42;100286.16;4973423;28;20089;-69
2023/04/24 09:30:01;;;;;;;7.15;3.60;;;;;;;17.81;67.70;100292.28;4973689;28;20038;-71
2023/04/24 09:32:28;;;;;;;8.95;4.45;;;;;;;17.88;68.19;100283.59;4973539;28;20489;-70
2023/04/24 09:35:13;;;;;;;7.95;4.07;;;;;;;18.02;66.27;100287.19;4973628;28;20030;-71
2023/04/24 09:37:41;;;;;;;6.20;4.20;;;;;;;17.97;65.33;100283.69;4973696;28;20030;-70
2023/04/24 09:40:22;;;;;;;8.65;4.32;;;;;;;18.00;63.45;100278.47;4973350;28;20031;-71
2023/04/24 09:43:00;;;;;;;9.68;4.25;;;;;;;18.02;62.60;100262.78;4973322;28;20117;-70
2023/04/24 09:45:36;;;;;;;5.53;3.63;;;;;;;18.18;62.85;100250.63;4973116;28;20043;-69
2023/04/24 09:48:02;;;;;;;6.60;3.67;;;;;;;18.24;64.36;100255.88;4972062;28;20274;-71
2023/04/24 09:50:31;;;;;;;9.15;4.28;;;;;;;18.39;62.70;100265.47;4972992;28;20034;-70
2023/04/24 09:53:01;;;;;;;7.35;4.22;;;;;;;18.61;61.03;100260.31;4988249;28;20395;-69
2023/04/24 09:55:27;;;;;;;8.95;4.32;;;;;;;18.78;62.67;100261.16;4973219;28;20035;-69
2023/04/24 09:57:54;;;;;;;10.18;3.97;;;;;;;18.98;60.22;100260.31;4972937;28;20030;-73
2023/04/24 10:00:25;;;;;;;9.82;4.40;;;;;;;19.19;60.45;100264.63;4973060;28;20118;-72
2023/04/24 10:02:54;;;;;;;7.40;3.40;;;;;;;19.40;55.88;100261.09;4972938;28;20042;-69
2023/04/24 10:05:23;;;;;;;6.53;3.60;;;;;;;19.52;56.47;100254.97;4970789;28;20796;-69
2023/04/24 10:07:49;;;;;;;;;;;;;;;19.49;58.20;100247.09;5003615;28;20121;-68
2023/04/24 10:10:15;;;;;;;9.50;4.28;;;;;;;19.40;58.22;100253.25;4972921;28;20000;-72
2023/04/24 10:12:41;;;;;;;6.25;3.50;;;;;;;19.24;58.62;100242.81;4972601;28;20038;-71
2023/04/24 10:15:10;;;;;;;7.65;4.10;;;;;;;19.33;57.30;100207.03;4972510;28;20031;-69
2023/04/24 10:17:36;;;;;;;6.38;4.30;;;;;;;19.45;56.13;100201.75;4970352;28;20057;-70
2023/04/24 10:20:02;;;;;;;7.53;3.70;;;;;;;19.70;56.75;100238.28;4972631;28;20023;-69
2023/04/24 10:22:30;;;;;;;7.68;4.07;;;;;;;19.71;54.47;100238.31;4972596;28;20126;-69
2023/04/24 10:24:56;;;;;;;6.90;3.50;;;;;;;19.88;54.38;100230.38;4971307;28;20050;-69
2023/04/24 10:27:23;;;;;;;9.88;4.00;;;;;;;20.08;53.83;100234.66;4972854;28;20027;-69
2023/04/24 10:29:53;;;;;;;9.82;4.13;;;;;;;20.14;54.46;100225.91;4972576;28;20611;-70
2023/04/24 10:32:18;;;;;;;9.73;3.97;;;;;;;20.05;55.31;100226.81;4972480;28;20505;-69
2023/04/24 10:34:44;;;;;;;7.55;3.67;;;;;;;20.32;54.53;100220.50;4972450;28;20031;-69
2023/04/24 10:37:10;;;;;;;10.57;4.18;;;;;;;20.23;54.85;100223.19;4972091;28;20030;-72
2023/04/24 10:39:37;;;;;;;8.00;3.85;;;;;;;20.50;53.75;100213.41;4972328;28;20034;-69
2023/04/24 10:42:15;;;;;;;8.18;3.65;;;;;;;20.14;54.19;100173.47;4972475;28;20066;-69
2023/04/24 10:44:40;;;;;;;11.18;3.53;;;;;;;20.09;54.34;100212.81;4980047;28;20096;-68
2023/04/24 10:47:13;;;;;;;6.57;4.22;;;;;;;20.38;55.29;100209.13;4990334;28;20060;-70
2023/04/24 10:49:40;;;;;;;5.78;3.80;;;;;;;20.57;52.45;100201.94;4991609;28;20034;-69
2023/04/24 10:52:05;;;;;;;7.45;3.70;;;;;;;20.76;52.83;100205.34;4990342;28;20121;-70
2023/04/24 10:54:42;;;;;;;5.20;3.80;;;;;;;20.69;51.51;100201.00;4991479;28;20518;-70
2023/04/24 10:57:21;;;;;;;9.07;3.92;;;;;;;20.82;50.84;100176.41;4991477;28;20027;-70
2023/04/24 11:00:07;;;;;;;9.05;3.70;;;;;;;20.39;50.84;100174.16;4991478;28;20117;-70
2023/04/24 11:02:38;;;;;;;7.00;3.88;;;;;;;20.67;52.08;100185.28;4991128;28;20050;-72
2023/04/24 11:05:05;;;;;;;5.85;3.88;;;;;;;20.60;52.17;100177.44;4991078;28;20054;-69
2023/04/24 11:08:08;;;;;;;5.80;4.10;;;;;;;20.88;53.07;100187.72;4988377;28;20096;-74
2023/04/24 11:10:40;;;;;;;5.43;3.80;;;;;;;21.19;50.96;100184.78;4972197;28;20038;-70
2023/04/24 11:13:06;;;;;;;5.82;3.38;;;;;;;21.12;51.76;100176.97;4988361;28;20117;-69
2023/04/24 11:15:32;;;;;;;6.63;3.67;;;;;;;21.20;50.68;100178.63;4991093;28;20062;-69